Time;durP1;ratioP1;P1;durP2;ratioP2;P2;SDS_P1;SDS_P2;PMS_P1;PMS_P2;Temp;Humidity;BMP_temperature;BMP_pressure;BME280_temperature;BME280_humidity;BME280_pressure;Samples;Min_cycle;Max_cycle;Signal;HPM_P1;HPM_P2
2023/01/12 06:10:35;;;;;;;13.50;6.40;;;;;;;-4.49;100.00;100584.83;106207;1249;62225;-63
2023/01/12 06:15:48;;;;;;;12.20;5.60;;;;;;;-4.40;100.00;100588.70;107061;1238;72731;-64
2023/01/12 06:23:08;;;;;;;11.50;6.70;;;;;;;-4.37;100.00;100581.82;106440;1237;72592;-63
2023/01/12 06:25:36;;;;;;;9.00;5.40;;;;;;;-4.34;100.00;100577.27;106562;1235;60281;-62
2023/01/12 06:28:05;;;;;;;14.90;8.30;;;;;;;-4.35;100.00;100577.77;106727;1235;59701;-63
2023/01/12 06:30:34;;;;;;;11.50;7.40;;;;;;;-4.32;100.00;100582.14;106403;1249;74241;-62
2023/01/12 06:33:02;;;;;;;12.10;8.00;;;;;;;-4.28;100.00;100584.31;106693;1237;69594;-62
2023/01/12 06:35:32;;;;;;;11.70;7.20;;;;;;;-4.26;100.00;100582.85;106860;1239;71643;-70
2023/01/12 06:38:00;;;;;;;11.70;7.20;;;;;;;-4.23;100.00;100579.16;106775;1239;61624;-65
2023/01/12 06:40:30;;;;;;;14.90;7.50;;;;;;;-4.22;100.00;100581.06;106741;1236;60734;-65
2023/01/12 06:42:58;;;;;;;13.60;8.10;;;;;;;-4.21;100.00;100578.21;106577;1239;72621;-63
2023/01/12 06:45:25;;;;;;;17.20;8.90;;;;;;;-4.22;100.00;100572.85;106908;1238;69453;-63
2023/01/12 06:47:52;;;;;;;13.80;7.90;;;;;;;-4.24;100.00;100575.36;107096;1237;71433;-60
2023/01/12 06:50:19;;;;;;;15.50;8.60;;;;;;;-4.22;100.00;100577.13;106762;1250;60779;-61
2023/01/12 06:52:47;;;;;;;16.00;7.80;;;;;;;-4.20;100.00;100580.13;106876;1235;60648;-62
2023/01/12 06:55:15;;;;;;;13.90;8.10;;;;;;;-4.16;100.00;100581.61;106945;1241;73897;-62
2023/01/12 06:57:42;;;;;;;14.10;8.00;;;;;;;-4.12;100.00;100585.53;107046;1241;70461;-61
2023/01/12 07:00:12;;;;;;;13.10;7.80;;;;;;;-4.07;100.00;100595.25;106558;1249;73438;-61
2023/01/12 07:02:39;;;;;;;13.80;8.10;;;;;;;-4.05;100.00;100594.45;106742;1243;60092;-63
2023/01/12 07:05:07;;;;;;;16.40;8.20;;;;;;;-4.02;100.00;100599.16;106824;1242;59772;-59
2023/01/12 07:07:36;;;;;;;13.40;7.70;;;;;;;-4.01;100.00;100598.69;106579;1240;74088;-62
2023/01/12 07:10:09;;;;;;;12.50;7.70;;;;;;;-4.00;100.00;100598.88;106821;1238;70815;-61
2023/01/12 07:12:37;;;;;;;14.00;7.20;;;;;;;-3.99;100.00;100600.31;106634;1242;73118;-63
2023/01/12 07:15:05;;;;;;;11.60;6.90;;;;;;;-3.96;100.00;100598.36;106812;1249;60906;-62
2023/01/12 07:17:33;;;;;;;12.00;6.80;;;;;;;-3.93;100.00;100589.52;107019;1235;59710;-61
2023/01/12 07:20:00;;;;;;;12.80;7.30;;;;;;;-3.88;100.00;100586.59;106695;1239;73905;-62
2023/01/12 07:22:29;;;;;;;11.10;6.80;;;;;;;-3.85;100.00;100581.71;106963;1239;70409;-66
2023/01/12 07:24:56;;;;;;;12.10;6.60;;;;;;;-3.79;100.00;100584.13;106654;1249;73275;-62
2023/01/12 07:27:24;;;;;;;15.20;6.90;;;;;;;-3.79;100.00;100583.11;106948;1235;62533;-61
2023/01/12 07:29:52;;;;;;;14.80;6.80;;;;;;;-3.76;100.00;100587.13;107209;1238;61928;-62
2023/01/12 07:32:19;;;;;;;9.80;6.40;;;;;;;-3.74;100.00;100582.20;106902;1239;73941;-62
2023/01/12 07:34:47;;;;;;;12.40;6.80;;;;;;;-3.69;100.00;100580.63;106923;1246;70173;-61
2023/01/12 07:37:14;;;;;;;11.00;6.80;;;;;;;-3.66;100.00;100581.92;106802;1235;71947;-61
2023/01/12 07:39:42;;;;;;;14.00;7.00;;;;;;;-3.67;100.00;100581.74;106743;1237;61226;-61
2023/01/12 07:42:22;;;;;;;10.00;5.80;;;;;;;-3.67;100.00;100576.78;107040;1239;60232;-61
2023/01/12 07:44:52;;;;;;;13.70;6.50;;;;;;;-3.62;100.00;100580.67;107146;1239;72427;-63
2023/01/12 07:47:19;;;;;;;9.70;5.50;;;;;;;-3.60;100.00;100581.80;106759;1242;69467;-61
2023/01/12 07:49:47;;;;;;;8.30;5.80;;;;;;;-3.55;100.00;100580.20;107210;1237;74086;-61
2023/01/12 07:52:14;;;;;;;7.80;6.10;;;;;;;-3.50;100.00;100581.02;107078;1236;60675;-60
2023/01/12 07:54:42;;;;;;;9.00;6.00;;;;;;;-3.47;100.00;100581.29;107639;1237;59712;-61
2023/01/12 07:57:10;;;;;;;10.90;6.80;;;;;;;-3.47;100.00;100580.10;107131;1237;73396;-63
2023/01/12 07:59:40;;;;;;;10.60;6.30;;;;;;;-3.46;100.00;100573.77;106999;1242;69972;-63
2023/01/12 12:12:19;;;;;;;3.40;2.60;;;;;;;-4.88;100.00;100460.52;102111;1295;600938;-63
2023/01/12 12:15:14;;;;;;;6.90;3.60;;;;;;;-4.47;100.00;100472.27;103531;1282;62049;-63
2023/01/12 12:18:29;;;;;;;11.10;5.70;;;;;;;-4.26;100.00;100474.28;103540;1270;60155;-63
2023/01/12 12:21:11;;;;;;;13.50;6.30;;;;;;;-4.03;100.00;100466.56;102962;1276;75162;-60
2023/01/12 12:24:00;;;;;;;11.40;6.30;;;;;;;-3.90;100.00;100462.17;104014;1263;69296;-59
2023/01/12 12:26:46;;;;;;;11.90;7.10;;;;;;;-3.75;100.00;100458.46;104618;1256;127098;-61
2023/01/12 12:29:29;;;;;;;8.50;6.40;;;;;;;-3.59;100.00;100459.12;104362;1263;60521;-64
2023/01/12 12:32:38;;;;;;;9.60;6.90;;;;;;;-3.49;100.00;100455.25;104306;1260;60490;-63
2023/01/12 12:35:31;;;;;;;11.00;7.10;;;;;;;-3.45;100.00;100454.84;104152;1266;73636;-62
2023/01/12 12:38:04;;;;;;;11.50;7.00;;;;;;;-3.39;100.00;100447.28;104131;1261;69577;-65
2023/01/12 12:47:40;;;;;;;13.60;6.80;;;;;;;-3.20;100.00;100443.31;103578;1265;60563;-62
2023/01/12 12:50:44;;;;;;;8.00;6.10;;;;;;;-3.19;100.00;100441.63;103730;1286;74841;-61
2023/01/12 12:53:37;;;;;;;10.70;6.50;;;;;;;-3.13;100.00;100436.11;103345;1271;70189;-61
2023/01/12 12:56:15;;;;;;;10.30;6.30;;;;;;;-3.02;100.00;100433.64;103808;1268;72852;-61
2023/01/12 12:59:00;;;;;;;10.40;6.00;;;;;;;-3.01;100.00;100440.38;103506;1265;60156;-63
2023/01/12 13:01:27;;;;;;;10.90;6.30;;;;;;;-3.04;100.00;100447.33;103796;1267;60941;-62
2023/01/12 13:03:59;;;;;;;7.50;5.70;;;;;;;-3.02;100.00;100447.72;103603;1270;73376;-62
2023/01/12 13:06:43;;;;;;;9.40;5.70;;;;;;;-3.01;100.00;100446.36;103663;1269;69186;-62
2023/01/12 13:09:10;;;;;;;10.70;5.90;;;;;;;-2.96;100.00;100445.30;103884;1286;73134;-62
2023/01/12 13:11:52;;;;;;;12.80;6.60;;;;;;;-2.94;100.00;100443.80;103607;1265;59700;-62
2023/01/12 13:14:27;;;;;;;9.20;6.60;;;;;;;-2.94;100.00;100444.13;103612;1264;60157;-62
2023/01/12 13:16:58;;;;;;;9.70;6.40;;;;;;;-2.96;100.00;100446.16;103624;1269;73520;-63
2023/01/12 13:19:33;;;;;;;7.10;5.60;;;;;;;-2.94;100.00;100443.12;103594;1276;71014;-62
2023/01/12 13:22:39;;;;;;;10.40;6.20;;;;;;;-2.88;100.00;100440.01;103787;1263;74853;-62
2023/01/12 13:25:16;;;;;;;10.30;6.10;;;;;;;-2.88;100.00;100442.91;103519;1268;61008;-63
2023/01/12 13:27:58;;;;;;;9.60;5.90;;;;;;;-2.88;100.00;100445.84;103604;1270;60605;-62
2023/01/12 13:30:29;;;;;;;14.90;6.70;;;;;;;-2.90;100.00;100445.10;103754;1269;73010;-62
2023/01/12 13:33:15;;;;;;;11.10;6.30;;;;;;;-2.84;100.00;100448.33;103808;1267;70537;-62
2023/01/12 13:35:45;;;;;;;8.20;6.60;;;;;;;-2.77;100.00;100460.00;103551;1271;72662;-64
2023/01/12 13:38:26;;;;;;;13.20;6.60;;;;;;;-2.73;100.00;100462.68;103671;1262;61804;-63
2023/01/12 13:41:01;;;;;;;9.30;6.40;;;;;;;-2.70;100.00;100460.17;103740;1265;60634;-64
2023/01/12 13:43:32;;;;;;;11.90;6.60;;;;;;;-2.71;100.00;100455.49;103805;1265;74946;-63
2023/01/12 13:46:03;;;;;;;9.00;5.90;;;;;;;-2.69;100.00;100460.34;103800;1265;70114;-63
2023/01/12 13:48:33;;;;;;;10.80;6.10;;;;;;;-2.67;100.00;100459.55;103450;1266;72737;-63
2023/01/12 13:51:05;;;;;;;8.60;6.20;;;;;;;-2.62;100.00;100466.54;103746;1270;60363;-62
2023/01/12 13:53:32;;;;;;;8.40;5.90;;;;;;;-2.62;100.00;100469.45;103548;1275;60212;-62
2023/01/12 13:56:06;;;;;;;7.50;5.70;;;;;;;-2.64;100.00;100465.98;103896;1262;73596;-62
2023/01/12 13:58:40;;;;;;;7.10;4.80;;;;;;;-2.65;100.00;100459.77;103677;1271;70821;-62
2023/01/12 14:01:28;;;;;;;9.00;5.10;;;;;;;-2.66;100.00;100453.39;103730;1277;72247;-63
2023/01/12 14:04:16;;;;;;;11.20;4.60;;;;;;;-2.66;100.00;100456.98;103652;1265;60256;-64
2023/01/12 14:07:02;;;;;;;6.60;4.20;;;;;;;-2.70;100.00;100460.51;103626;1270;60183;-65
2023/01/12 14:09:48;;;;;;;6.10;4.30;;;;;;;-2.76;100.00;100466.38;103556;1267;73466;-63
2023/01/12 14:12:53;;;;;;;8.00;4.60;;;;;;;-2.82;100.00;100465.55;103634;1270;70376;-62
2023/01/12 14:18:24;;;;;;;12.60;5.90;;;;;;;-2.78;100.00;100468.05;103850;1265;60484;-62
2023/01/12 14:36:29;;;;;;;9.80;4.80;;;;;;;-2.85;100.00;100469.25;103854;1277;75319;-62
2023/01/12 14:38:57;;;;;;;11.90;4.80;;;;;;;-2.79;100.00;100472.14;103883;1267;60694;-63
2023/01/12 14:47:01;;;;;;;7.20;5.00;;;;;;;-2.88;100.00;100484.27;103989;1264;70627;-61
2023/01/12 14:49:30;;;;;;;9.20;5.70;;;;;;;-2.92;100.00;100483.64;103779;1263;72739;-61
2023/01/12 14:52:16;;;;;;;6.20;4.80;;;;;;;-2.88;100.00;100482.70;103849;1280;60855;-61
2023/01/12 14:54:43;;;;;;;10.70;4.30;;;;;;;-2.82;100.00;100482.88;103613;1270;60782;-61
2023/01/12 14:57:23;;;;;;;8.80;5.40;;;;;;;-2.81;100.00;100481.88;104081;1263;73970;-62
2023/01/12 14:59:50;;;;;;;6.20;4.60;;;;;;;-2.81;100.00;100484.09;103730;1267;69445;-61
2023/01/12 15:02:31;;;;;;;8.40;5.10;;;;;;;-2.82;100.00;100484.23;104001;1273;73260;-61
2023/01/12 15:05:07;;;;;;;10.40;5.50;;;;;;;-2.80;100.00;100481.55;103908;1269;61350;-61
2023/01/12 15:08:02;;;;;;;9.30;4.80;;;;;;;-2.77;100.00;100479.93;103819;1265;62745;-62
2023/01/12 15:10:31;;;;;;;8.00;5.10;;;;;;;-2.80;100.00;100482.06;103791;1265;75652;-61
2023/01/12 15:13:24;;;;;;;13.60;5.40;;;;;;;-2.81;100.00;100488.38;103800;1271;70954;-62
2023/01/12 15:27:17;;;;;;;11.30;5.00;;;;;;;-2.87;100.00;100468.84;104055;1262;69694;-63
2023/01/12 15:29:44;;;;;;;10.20;4.90;;;;;;;-2.88;100.00;100471.57;104261;1265;73194;-62
2023/01/12 15:32:17;;;;;;;6.30;4.80;;;;;;;-2.85;100.00;100471.79;103702;1263;60766;-63
2023/01/12 15:34:45;;;;;;;10.60;5.40;;;;;;;-2.78;100.00;100474.91;103782;1268;60445;-62
2023/01/12 15:37:13;;;;;;;11.10;4.90;;;;;;;-2.74;100.00;100478.79;103735;1268;74186;-63
2023/01/12 15:39:41;;;;;;;11.20;6.00;;;;;;;-2.73;100.00;100480.00;103823;1263;69766;-65
2023/01/12 15:42:21;;;;;;;9.70;5.20;;;;;;;-2.74;100.00;100475.84;103607;1262;73071;-66
2023/01/12 15:44:49;;;;;;;8.20;6.30;;;;;;;-2.79;100.00;100482.44;103931;1268;60940;-64
2023/01/12 15:47:17;;;;;;;10.10;5.90;;;;;;;-2.73;100.00;100484.30;103621;1264;59742;-62
2023/01/12 15:49:46;;;;;;;8.40;5.00;;;;;;;-2.68;100.00;100482.19;103673;1269;73029;-65
2023/01/12 15:52:22;;;;;;;5.50;4.90;;;;;;;-2.70;100.00;100479.71;103635;1270;72410;-65
2023/01/12 15:54:49;;;;;;;6.90;4.30;;;;;;;-2.70;100.00;100475.95;103964;1270;72602;-63
2023/01/12 21:59:30;;;;;;;4.80;2.90;;;;;;;-5.23;100.00;100428.11;102143;1295;601377;-60
2023/01/12 22:01:57;;;;;;;8.70;5.80;;;;;;;-4.80;100.00;100430.55;104338;1256;62633;-61
2023/01/12 22:04:24;;;;;;;13.90;6.80;;;;;;;-4.56;100.00;100425.27;104350;1255;60401;-62
2023/01/12 22:06:51;;;;;;;12.50;7.60;;;;;;;-4.39;100.00;100416.23;104281;1261;73113;-62
2023/01/12 22:09:18;;;;;;;12.50;7.50;;;;;;;-4.24;100.00;100409.45;104446;1260;70194;-63
2023/01/12 22:11:46;;;;;;;12.80;7.30;;;;;;;-4.12;100.00;100406.04;104325;1257;71837;-62
2023/01/12 22:14:13;;;;;;;15.80;7.40;;;;;;;-4.00;100.00;100406.70;104317;1256;149466;-62
2023/01/12 22:16:40;;;;;;;11.50;7.10;;;;;;;-3.90;100.00;100407.86;104294;1257;60484;-63
2023/01/12 22:19:07;;;;;;;11.50;6.70;;;;;;;-3.80;100.00;100397.67;104441;1259;72571;-63
2023/01/12 22:21:34;;;;;;;15.10;8.10;;;;;;;-3.74;100.00;100392.37;104354;1251;69918;-62
2023/01/12 22:24:02;;;;;;;16.50;7.70;;;;;;;-3.70;100.00;100389.75;104395;1258;73332;-63
2023/01/12 22:26:31;;;;;;;13.40;7.50;;;;;;;-3.69;100.00;100391.48;104387;1254;59736;-62
2023/01/12 22:28:58;;;;;;;16.90;9.30;;;;;;;-3.68;100.00;100389.94;104344;1260;60898;-63
2023/01/12 22:31:25;;;;;;;17.60;8.10;;;;;;;-3.60;100.00;100388.79;104451;1259;74547;-62
2023/01/12 22:34:01;;;;;;;13.30;8.80;;;;;;;-3.53;100.00;100391.21;104449;1267;71690;-63
2023/01/12 22:36:29;;;;;;;21.50;9.20;;;;;;;-3.52;100.00;100389.88;104349;1257;73527;-63
2023/01/12 22:38:59;;;;;;;17.40;9.20;;;;;;;-3.51;100.00;100389.54;104376;1259;61907;-64
2023/01/12 22:41:26;;;;;;;15.00;7.60;;;;;;;-3.52;100.00;100392.60;104417;1256;59937;-63
2023/01/12 22:43:53;;;;;;;19.40;8.70;;;;;;;-3.48;100.00;100390.64;104326;1253;73258;-62
2023/01/12 22:46:21;;;;;;;;;;;;;;;-3.40;100.00;100387.42;104417;1267;69334;-62
2023/01/12 22:48:49;;;;;;;20.10;7.60;;;;;;;-3.38;100.00;100391.40;104341;1257;71838;-62
2023/01/12 22:51:17;;;;;;;16.60;7.60;;;;;;;-3.33;100.00;100391.90;104354;1266;61699;-64
2023/01/12 22:53:44;;;;;;;14.30;6.60;;;;;;;-3.29;100.00;100388.39;104260;1251;61068;-62
2023/01/12 22:56:11;;;;;;;15.60;7.50;;;;;;;-3.26;100.00;100393.27;104354;1273;75416;-62
2023/01/12 22:58:39;;;;;;;14.50;7.20;;;;;;;-3.24;100.00;100391.95;104397;1251;70737;-63
2023/01/12 23:01:07;;;;;;;19.60;7.60;;;;;;;-3.22;100.00;100387.20;104311;1255;72086;-63
2023/01/12 23:03:35;;;;;;;11.80;6.60;;;;;;;-3.20;100.00;100388.97;104490;1265;61333;-63
2023/01/12 23:06:02;;;;;;;14.90;6.60;;;;;;;-3.21;100.00;100390.66;104247;1255;61480;-63
2023/01/12 23:08:29;;;;;;;14.40;8.30;;;;;;;-3.21;100.00;100391.84;104364;1268;75314;-63
2023/01/12 23:11:04;;;;;;;19.50;8.30;;;;;;;-3.19;100.00;100393.95;104277;1272;72045;-63
2023/01/12 23:13:32;;;;;;;17.30;6.90;;;;;;;-3.17;100.00;100397.42;104359;1275;72451;-62
2023/01/12 23:16:01;;;;;;;;;;;;;;;-3.11;100.00;100400.49;104404;1257;61764;-63
2023/01/12 23:18:28;;;;;;;20.80;7.60;;;;;;;-3.07;100.00;100398.38;104411;1266;62418;-63
2023/01/12 23:21:00;;;;;;;;;;;;;;;-3.00;100.00;100395.80;104379;1266;74697;-62
2023/01/12 23:23:29;;;;;;;18.50;6.90;;;;;;;-3.02;100.00;100395.56;104420;1275;70223;-62
2023/01/12 23:26:16;;;;;;;13.10;7.20;;;;;;;-3.01;100.00;100393.70;104345;1256;72013;-62
2023/01/12 23:28:46;;;;;;;10.90;6.20;;;;;;;-3.04;100.00;100391.73;104331;1267;61006;-62
2023/01/12 23:31:15;;;;;;;18.80;6.40;;;;;;;-3.04;100.00;100379.05;104340;1254;61089;-63
2023/01/12 23:33:42;;;;;;;15.90;6.20;;;;;;;-3.02;100.00;100376.02;104278;1265;73972;-62
2023/01/12 23:36:12;;;;;;;11.70;5.90;;;;;;;-3.03;100.00;100370.15;104370;1256;69291;-62
2023/01/12 23:38:39;;;;;;;16.20;6.90;;;;;;;-3.06;100.00;100369.72;104343;1254;71569;-62
2023/01/12 23:41:17;;;;;;;15.50;6.90;;;;;;;-3.04;100.00;100373.55;104383;1258;59852;-63
2023/01/12 23:43:49;;;;;;;11.30;6.20;;;;;;;-3.06;100.00;100374.55;104282;1267;60593;-62
2023/01/12 23:46:18;;;;;;;12.20;6.80;;;;;;;-3.06;100.00;100373.34;104283;1261;73736;-62
2023/01/12 23:48:46;;;;;;;10.80;6.30;;;;;;;-3.07;100.00;100372.11;104361;1260;69657;-62
2023/01/12 23:51:14;;;;;;;8.80;5.90;;;;;;;-3.02;100.00;100374.29;104308;1267;73970;-62
2023/01/12 23:53:41;;;;;;;16.00;6.20;;;;;;;-2.97;100.00;100374.95;104379;1259;61428;-62
2023/01/12 23:56:10;;;;;;;11.80;6.20;;;;;;;-2.92;100.00;100373.66;104337;1260;61537;-63
2023/01/12 23:58:37;;;;;;;19.90;6.40;;;;;;;-2.88;100.00;100372.38;104320;1261;75626;-63
